sensor_id;sensor_type;location;lat;lon;timestamp;P1;durP1;ratioP1;P2;durP2;ratioP2
14613;SDS011;7393;51.446;6.800;2023-02-01T00:02:08;24.80;;;6.03;;
14613;SDS011;7393;51.446;6.800;2023-02-01T00:04:35;10.97;;;4.47;;
14613;SDS011;7393;51.446;6.800;2023-02-01T00:07:02;15.40;;;4.90;;
14613;SDS011;7393;51.446;6.800;2023-02-01T00:09:29;16.67;;;5.07;;
14613;SDS011;7393;51.446;6.800;2023-02-01T00:11:55;17.57;;;5.33;;
14613;SDS011;7393;51.446;6.800;2023-02-01T00:14:24;11.83;;;4.17;;
14613;SDS011;7393;51.446;6.800;2023-02-01T00:16:51;15.67;;;4.20;;
14613;SDS011;7393;51.446;6.800;2023-02-01T00:19:19;12.33;;;3.77;;
14613;SDS011;7393;51.446;6.800;2023-02-01T00:21:46;13.47;;;3.97;;
14613;SDS011;7393;51.446;6.800;2023-02-01T00:24:12;14.93;;;4.23;;
14613;SDS011;7393;51.446;6.800;2023-02-01T00:26:40;11.57;;;4.20;;
14613;SDS011;7393;51.446;6.800;2023-02-01T00:29:09;16.30;;;4.10;;
14613;SDS011;7393;51.446;6.800;2023-02-01T00:31:37;14.43;;;4.27;;
14613;SDS011;7393;51.446;6.800;2023-02-01T00:34:05;9.97;;;3.30;;
14613;SDS011;7393;51.446;6.800;2023-02-01T00:36:35;17.27;;;4.27;;
14613;SDS011;7393;51.446;6.800;2023-02-01T00:39:01;16.67;;;4.13;;
14613;SDS011;7393;51.446;6.800;2023-02-01T00:41:28;14.87;;;4.03;;
14613;SDS011;7393;51.446;6.800;2023-02-01T00:43:55;12.20;;;4.03;;
14613;SDS011;7393;51.446;6.800;2023-02-01T00:46:22;14.43;;;4.30;;
14613;SDS011;7393;51.446;6.800;2023-02-01T00:48:49;16.57;;;5.07;;
14613;SDS011;7393;51.446;6.800;2023-02-01T00:51:16;16.17;;;5.47;;
14613;SDS011;7393;51.446;6.800;2023-02-01T00:53:46;19.27;;;5.73;;
14613;SDS011;7393;51.446;6.800;2023-02-01T00:56:14;21.00;;;5.60;;
14613;SDS011;7393;51.446;6.800;2023-02-01T00:58:41;14.23;;;5.20;;
14613;SDS011;7393;51.446;6.800;2023-02-01T01:01:08;13.10;;;5.40;;
14613;SDS011;7393;51.446;6.800;2023-02-01T01:03:37;17.47;;;5.23;;
14613;SDS011;7393;51.446;6.800;2023-02-01T01:06:05;18.57;;;5.90;;
14613;SDS011;7393;51.446;6.800;2023-02-01T01:08:35;17.17;;;5.87;;
14613;SDS011;7393;51.446;6.800;2023-02-01T01:11:07;18.07;;;6.00;;
14613;SDS011;7393;51.446;6.800;2023-02-01T01:13:35;17.27;;;5.93;;
14613;SDS011;7393;51.446;6.800;2023-02-01T01:16:03;18.43;;;5.87;;
14613;SDS011;7393;51.446;6.800;2023-02-01T01:18:31;16.80;;;6.43;;
14613;SDS011;7393;51.446;6.800;2023-02-01T01:20:59;17.83;;;5.67;;
14613;SDS011;7393;51.446;6.800;2023-02-01T01:23:27;13.07;;;5.83;;
14613;SDS011;7393;51.446;6.800;2023-02-01T01:25:54;14.53;;;5.40;;
14613;SDS011;7393;51.446;6.800;2023-02-01T01:28:22;17.20;;;5.73;;
14613;SDS011;7393;51.446;6.800;2023-02-01T01:30:49;15.83;;;6.03;;
14613;SDS011;7393;51.446;6.800;2023-02-01T01:33:15;19.87;;;6.30;;
14613;SDS011;7393;51.446;6.800;2023-02-01T01:35:42;19.37;;;6.23;;
14613;SDS011;7393;51.446;6.800;2023-02-01T01:38:09;23.33;;;6.33;;
14613;SDS011;7393;51.446;6.800;2023-02-01T01:40:37;24.27;;;7.10;;
14613;SDS011;7393;51.446;6.800;2023-02-01T01:43:09;14.00;;;5.97;;
14613;SDS011;7393;51.446;6.800;2023-02-01T01:45:41;21.77;;;5.43;;
14613;SDS011;7393;51.446;6.800;2023-02-01T01:48:09;17.40;;;5.70;;
14613;SDS011;7393;51.446;6.800;2023-02-01T01:50:40;16.60;;;6.00;;
14613;SDS011;7393;51.446;6.800;2023-02-01T01:53:13;11.33;;;5.20;;
14613;SDS011;7393;51.446;6.800;2023-02-01T01:55:43;14.77;;;5.67;;
14613;SDS011;7393;51.446;6.800;2023-02-01T01:58:12;16.37;;;4.90;;
14613;SDS011;7393;51.446;6.800;2023-02-01T02:00:43;15.33;;;4.97;;
14613;SDS011;7393;51.446;6.800;2023-02-01T02:03:11;19.53;;;4.90;;
14613;SDS011;7393;51.446;6.800;2023-02-01T02:05:44;18.97;;;3.90;;
14613;SDS011;7393;51.446;6.800;2023-02-01T02:08:11;14.37;;;4.47;;
14613;SDS011;7393;51.446;6.800;2023-02-01T02:10:39;11.70;;;3.83;;
14613;SDS011;7393;51.446;6.800;2023-02-01T02:13:23;13.87;;;4.27;;
14613;SDS011;7393;51.446;6.800;2023-02-01T02:15:55;19.03;;;4.37;;
14613;SDS011;7393;51.446;6.800;2023-02-01T02:18:31;15.60;;;4.27;;
14613;SDS011;7393;51.446;6.800;2023-02-01T02:21:10;18.57;;;3.97;;
14613;SDS011;7393;51.446;6.800;2023-02-01T02:23:48;17.77;;;4.00;;
14613;SDS011;7393;51.446;6.800;2023-02-01T02:29:34;17.10;;;4.03;;
14613;SDS011;7393;51.446;6.800;2023-02-01T02:32:28;14.07;;;3.90;;
14613;SDS011;7393;51.446;6.800;2023-02-01T02:35:16;12.63;;;3.77;;
14613;SDS011;7393;51.446;6.800;2023-02-01T02:37:50;11.40;;;3.20;;
14613;SDS011;7393;51.446;6.800;2023-02-01T02:40:25;15.23;;;3.47;;
14613;SDS011;7393;51.446;6.800;2023-02-01T02:42:58;15.40;;;3.50;;
14613;SDS011;7393;51.446;6.800;2023-02-01T02:45:53;13.93;;;3.27;;
14613;SDS011;7393;51.446;6.800;2023-02-01T02:48:43;14.77;;;3.90;;
14613;SDS011;7393;51.446;6.800;2023-02-01T02:51:14;11.27;;;3.47;;
14613;SDS011;7393;51.446;6.800;2023-02-01T02:54:05;12.50;;;3.27;;
14613;SDS011;7393;51.446;6.800;2023-02-01T02:56:52;16.70;;;3.33;;
14613;SDS011;7393;51.446;6.800;2023-02-01T02:59:38;11.03;;;3.80;;
14613;SDS011;7393;51.446;6.800;2023-02-01T03:02:24;14.30;;;3.67;;
14613;SDS011;7393;51.446;6.800;2023-02-01T03:05:11;11.97;;;3.27;;
14613;SDS011;7393;51.446;6.800;2023-02-01T03:07:47;15.90;;;3.17;;
14613;SDS011;7393;51.446;6.800;2023-02-01T03:10:22;16.30;;;3.43;;
14613;SDS011;7393;51.446;6.800;2023-02-01T03:12:52;21.77;;;3.90;;
14613;SDS011;7393;51.446;6.800;2023-02-01T03:15:23;16.10;;;3.73;;
14613;SDS011;7393;51.446;6.800;2023-02-01T03:17:55;15.60;;;3.87;;
14613;SDS011;7393;51.446;6.800;2023-02-01T03:20:24;17.77;;;3.80;;
14613;SDS011;7393;51.446;6.800;2023-02-01T03:22:53;15.37;;;3.20;;
14613;SDS011;7393;51.446;6.800;2023-02-01T03:25:24;18.70;;;4.10;;
14613;SDS011;7393;51.446;6.800;2023-02-01T03:27:55;12.83;;;3.93;;
14613;SDS011;7393;51.446;6.800;2023-02-01T03:30:26;20.40;;;3.57;;
14613;SDS011;7393;51.446;6.800;2023-02-01T03:32:57;11.97;;;3.33;;
14613;SDS011;7393;51.446;6.800;2023-02-01T03:35:27;17.33;;;3.40;;
14613;SDS011;7393;51.446;6.800;2023-02-01T03:38:02;17.53;;;2.90;;
14613;SDS011;7393;51.446;6.800;2023-02-01T03:40:36;12.53;;;3.60;;
14613;SDS011;7393;51.446;6.800;2023-02-01T03:43:05;20.97;;;3.77;;
14613;SDS011;7393;51.446;6.800;2023-02-01T03:45:36;18.40;;;3.93;;
14613;SDS011;7393;51.446;6.800;2023-02-01T03:48:07;14.80;;;3.80;;
14613;SDS011;7393;51.446;6.800;2023-02-01T03:50:38;17.17;;;4.20;;
14613;SDS011;7393;51.446;6.800;2023-02-01T03:53:13;18.87;;;3.80;;
14613;SDS011;7393;51.446;6.800;2023-02-01T03:55:43;16.57;;;3.67;;
14613;SDS011;7393;51.446;6.800;2023-02-01T03:58:11;12.73;;;3.27;;
14613;SDS011;7393;51.446;6.800;2023-02-01T04:00:39;15.90;;;5.10;;
14613;SDS011;7393;51.446;6.800;2023-02-01T04:03:09;16.57;;;4.13;;
14613;SDS011;7393;51.446;6.800;2023-02-01T04:05:36;14.70;;;4.10;;
14613;SDS011;7393;51.446;6.800;2023-02-01T04:08:03;18.30;;;4.17;;
14613;SDS011;7393;51.446;6.800;2023-02-01T04:10:32;12.10;;;3.77;;
14613;SDS011;7393;51.446;6.800;2023-02-01T04:12:59;16.37;;;3.83;;
14613;SDS011;7393;51.446;6.800;2023-02-01T04:15:26;14.73;;;3.83;;
14613;SDS011;7393;51.446;6.800;2023-02-01T04:17:52;12.70;;;3.63;;
14613;SDS011;7393;51.446;6.800;2023-02-01T04:20:19;16.73;;;3.87;;
14613;SDS011;7393;51.446;6.800;2023-02-01T04:22:46;18.03;;;4.17;;
14613;SDS011;7393;51.446;6.800;2023-02-01T04:25:13;16.53;;;4.00;;
14613;SDS011;7393;51.446;6.800;2023-02-01T04:27:43;12.57;;;3.37;;
14613;SDS011;7393;51.446;6.800;2023-02-01T04:30:10;15.63;;;4.10;;
14613;SDS011;7393;51.446;6.800;2023-02-01T04:32:38;20.90;;;3.80;;
14613;SDS011;7393;51.446;6.800;2023-02-01T04:35:05;14.13;;;3.70;;
14613;SDS011;7393;51.446;6.800;2023-02-01T04:37:33;17.33;;;3.67;;
14613;SDS011;7393;51.446;6.800;2023-02-01T04:40:00;18.43;;;4.23;;
14613;SDS011;7393;51.446;6.800;2023-02-01T04:42:28;17.97;;;4.43;;
14613;SDS011;7393;51.446;6.800;2023-02-01T04:44:57;13.33;;;3.83;;
14613;SDS011;7393;51.446;6.800;2023-02-01T04:47:24;19.77;;;3.87;;
14613;SDS011;7393;51.446;6.800;2023-02-01T04:49:51;17.63;;;4.23;;
14613;SDS011;7393;51.446;6.800;2023-02-01T04:52:18;18.57;;;3.90;;
14613;SDS011;7393;51.446;6.800;2023-02-01T04:54:44;17.40;;;3.80;;
14613;SDS011;7393;51.446;6.800;2023-02-01T04:57:11;15.10;;;3.70;;
14613;SDS011;7393;51.446;6.800;2023-02-01T04:59:39;21.20;;;4.10;;
14613;SDS011;7393;51.446;6.800;2023-02-01T05:02:08;15.07;;;3.87;;
14613;SDS011;7393;51.446;6.800;2023-02-01T05:04:34;18.23;;;4.13;;
14613;SDS011;7393;51.446;6.800;2023-02-01T05:07:01;19.37;;;3.53;;
14613;SDS011;7393;51.446;6.800;2023-02-01T05:09:28;14.27;;;3.13;;
14613;SDS011;7393;51.446;6.800;2023-02-01T05:11:55;17.70;;;3.70;;
14613;SDS011;7393;51.446;6.800;2023-02-01T05:14:39;15.87;;;3.47;;
14613;SDS011;7393;51.446;6.800;2023-02-01T05:17:07;14.30;;;3.50;;
14613;SDS011;7393;51.446;6.800;2023-02-01T05:19:34;19.40;;;3.87;;
14613;SDS011;7393;51.446;6.800;2023-02-01T05:22:00;16.97;;;3.30;;
14613;SDS011;7393;51.446;6.800;2023-02-01T05:24:27;19.13;;;3.43;;
14613;SDS011;7393;51.446;6.800;2023-02-01T05:26:54;14.83;;;3.77;;
14613;SDS011;7393;51.446;6.800;2023-02-01T05:29:21;13.33;;;3.73;;
14613;SDS011;7393;51.446;6.800;2023-02-01T05:31:47;16.70;;;3.80;;
14613;SDS011;7393;51.446;6.800;2023-02-01T05:34:16;17.53;;;3.93;;
14613;SDS011;7393;51.446;6.800;2023-02-01T05:36:42;13.37;;;3.17;;
14613;SDS011;7393;51.446;6.800;2023-02-01T05:39:09;23.23;;;4.73;;
14613;SDS011;7393;51.446;6.800;2023-02-01T05:41:36;16.50;;;3.70;;
14613;SDS011;7393;51.446;6.800;2023-02-01T05:44:03;18.03;;;4.10;;
14613;SDS011;7393;51.446;6.800;2023-02-01T05:46:32;18.43;;;3.57;;
14613;SDS011;7393;51.446;6.800;2023-02-01T05:48:59;17.67;;;3.90;;
14613;SDS011;7393;51.446;6.800;2023-02-01T05:51:27;18.33;;;3.80;;
14613;SDS011;7393;51.446;6.800;2023-02-01T05:53:54;19.43;;;3.70;;
14613;SDS011;7393;51.446;6.800;2023-02-01T05:56:20;22.37;;;3.77;;
14613;SDS011;7393;51.446;6.800;2023-02-01T05:58:47;40.97;;;6.67;;
14613;SDS011;7393;51.446;6.800;2023-02-01T06:01:14;12.03;;;3.70;;
14613;SDS011;7393;51.446;6.800;2023-02-01T06:03:41;19.17;;;4.23;;
14613;SDS011;7393;51.446;6.800;2023-02-01T06:06:08;23.90;;;4.67;;
14613;SDS011;7393;51.446;6.800;2023-02-01T06:08:36;24.83;;;4.67;;
14613;SDS011;7393;51.446;6.800;2023-02-01T06:13:34;15.67;;;3.27;;
14613;SDS011;7393;51.446;6.800;2023-02-01T06:16:14;19.17;;;4.03;;
14613;SDS011;7393;51.446;6.800;2023-02-01T06:18:41;19.50;;;4.13;;
14613;SDS011;7393;51.446;6.800;2023-02-01T06:21:08;24.53;;;4.60;;
14613;SDS011;7393;51.446;6.800;2023-02-01T06:23:36;18.20;;;4.40;;
14613;SDS011;7393;51.446;6.800;2023-02-01T06:26:03;22.20;;;4.17;;
14613;SDS011;7393;51.446;6.800;2023-02-01T06:28:33;16.23;;;3.67;;
14613;SDS011;7393;51.446;6.800;2023-02-01T06:31:02;16.70;;;3.93;;
14613;SDS011;7393;51.446;6.800;2023-02-01T06:33:31;20.60;;;3.83;;
14613;SDS011;7393;51.446;6.800;2023-02-01T06:35:58;19.67;;;3.93;;
14613;SDS011;7393;51.446;6.800;2023-02-01T06:38:27;14.67;;;3.70;;
14613;SDS011;7393;51.446;6.800;2023-02-01T06:40:55;17.97;;;3.60;;
14613;SDS011;7393;51.446;6.800;2023-02-01T06:43:23;14.87;;;3.93;;
14613;SDS011;7393;51.446;6.800;2023-02-01T06:45:51;16.13;;;3.97;;
14613;SDS011;7393;51.446;6.800;2023-02-01T06:48:18;23.47;;;4.77;;
14613;SDS011;7393;51.446;6.800;2023-02-01T06:50:45;18.87;;;3.80;;
14613;SDS011;7393;51.446;6.800;2023-02-01T06:53:12;13.03;;;3.17;;
14613;SDS011;7393;51.446;6.800;2023-02-01T06:55:39;16.27;;;3.73;;
14613;SDS011;7393;51.446;6.800;2023-02-01T06:58:07;22.37;;;4.50;;
14613;SDS011;7393;51.446;6.800;2023-02-01T07:00:33;20.07;;;3.93;;
14613;SDS011;7393;51.446;6.800;2023-02-01T07:03:01;17.30;;;3.67;;
14613;SDS011;7393;51.446;6.800;2023-02-01T07:05:28;16.70;;;3.97;;
14613;SDS011;7393;51.446;6.800;2023-02-01T07:07:55;12.13;;;3.53;;
14613;SDS011;7393;51.446;6.800;2023-02-01T07:10:21;19.43;;;4.20;;
14613;SDS011;7393;51.446;6.800;2023-02-01T07:12:48;17.73;;;3.87;;
14613;SDS011;7393;51.446;6.800;2023-02-01T07:15:17;14.93;;;3.90;;
14613;SDS011;7393;51.446;6.800;2023-02-01T07:17:43;19.20;;;3.30;;
14613;SDS011;7393;51.446;6.800;2023-02-01T07:20:12;20.00;;;4.20;;
14613;SDS011;7393;51.446;6.800;2023-02-01T07:22:38;17.60;;;3.87;;
14613;SDS011;7393;51.446;6.800;2023-02-01T07:25:06;14.30;;;3.87;;
14613;SDS011;7393;51.446;6.800;2023-02-01T07:27:33;23.03;;;4.37;;
14613;SDS011;7393;51.446;6.800;2023-02-01T07:30:00;19.87;;;4.10;;
14613;SDS011;7393;51.446;6.800;2023-02-01T07:32:29;21.90;;;3.47;;
14613;SDS011;7393;51.446;6.800;2023-02-01T07:34:56;19.40;;;4.13;;
14613;SDS011;7393;51.446;6.800;2023-02-01T07:37:23;22.93;;;3.63;;
14613;SDS011;7393;51.446;6.800;2023-02-01T07:39:50;16.97;;;4.07;;
14613;SDS011;7393;51.446;6.800;2023-02-01T07:42:17;28.87;;;3.83;;
14613;SDS011;7393;51.446;6.800;2023-02-01T07:44:44;18.90;;;4.10;;
14613;SDS011;7393;51.446;6.800;2023-02-01T07:47:11;16.27;;;3.47;;
14613;SDS011;7393;51.446;6.800;2023-02-01T07:49:39;17.20;;;3.90;;
14613;SDS011;7393;51.446;6.800;2023-02-01T07:52:06;22.93;;;4.43;;
14613;SDS011;7393;51.446;6.800;2023-02-01T07:54:33;24.63;;;4.57;;
14613;SDS011;7393;51.446;6.800;2023-02-01T07:56:59;22.83;;;3.80;;
14613;SDS011;7393;51.446;6.800;2023-02-01T07:59:26;22.97;;;4.47;;
14613;SDS011;7393;51.446;6.800;2023-02-01T08:01:53;19.80;;;3.93;;
14613;SDS011;7393;51.446;6.800;2023-02-01T08:04:19;26.57;;;4.50;;
14613;SDS011;7393;51.446;6.800;2023-02-01T08:06:47;21.37;;;4.30;;
14613;SDS011;7393;51.446;6.800;2023-02-01T08:09:14;20.90;;;4.27;;
14613;SDS011;7393;51.446;6.800;2023-02-01T08:11:41;20.60;;;4.33;;
14613;SDS011;7393;51.446;6.800;2023-02-01T08:14:08;14.97;;;4.20;;
14613;SDS011;7393;51.446;6.800;2023-02-01T08:16:34;19.70;;;4.20;;
14613;SDS011;7393;51.446;6.800;2023-02-01T08:19:02;19.50;;;4.17;;
14613;SDS011;7393;51.446;6.800;2023-02-01T08:21:29;18.43;;;3.67;;
14613;SDS011;7393;51.446;6.800;2023-02-01T08:24:03;24.20;;;4.03;;
14613;SDS011;7393;51.446;6.800;2023-02-01T08:26:31;22.27;;;4.20;;
14613;SDS011;7393;51.446;6.800;2023-02-01T08:28:58;20.43;;;3.83;;
14613;SDS011;7393;51.446;6.800;2023-02-01T08:31:28;15.17;;;3.50;;
14613;SDS011;7393;51.446;6.800;2023-02-01T08:33:57;15.70;;;3.93;;
14613;SDS011;7393;51.446;6.800;2023-02-01T08:36:26;17.87;;;3.97;;
14613;SDS011;7393;51.446;6.800;2023-02-01T08:38:54;21.40;;;3.40;;
14613;SDS011;7393;51.446;6.800;2023-02-01T08:41:24;19.60;;;3.80;;
14613;SDS011;7393;51.446;6.800;2023-02-01T08:43:52;22.10;;;4.10;;
14613;SDS011;7393;51.446;6.800;2023-02-01T08:46:19;18.87;;;4.37;;
14613;SDS011;7393;51.446;6.800;2023-02-01T08:48:47;19.80;;;3.97;;
14613;SDS011;7393;51.446;6.800;2023-02-01T08:51:15;17.90;;;3.77;;
14613;SDS011;7393;51.446;6.800;2023-02-01T08:53:43;23.27;;;5.00;;
14613;SDS011;7393;51.446;6.800;2023-02-01T08:56:11;20.80;;;4.13;;
14613;SDS011;7393;51.446;6.800;2023-02-01T08:58:41;21.37;;;4.40;;
14613;SDS011;7393;51.446;6.800;2023-02-01T09:01:08;21.70;;;4.40;;
14613;SDS011;7393;51.446;6.800;2023-02-01T09:03:37;15.77;;;3.97;;
14613;SDS011;7393;51.446;6.800;2023-02-01T09:06:05;23.43;;;3.83;;
14613;SDS011;7393;51.446;6.800;2023-02-01T09:08:33;21.30;;;5.37;;
14613;SDS011;7393;51.446;6.800;2023-02-01T09:11:00;19.90;;;3.63;;
14613;SDS011;7393;51.446;6.800;2023-02-01T09:13:27;15.27;;;4.00;;
14613;SDS011;7393;51.446;6.800;2023-02-01T09:15:55;19.33;;;4.23;;
14613;SDS011;7393;51.446;6.800;2023-02-01T09:18:24;18.83;;;4.43;;
14613;SDS011;7393;51.446;6.800;2023-02-01T09:20:51;15.50;;;4.13;;
14613;SDS011;7393;51.446;6.800;2023-02-01T09:23:18;18.17;;;4.13;;
14613;SDS011;7393;51.446;6.800;2023-02-01T09:25:46;18.00;;;4.10;;
14613;SDS011;7393;51.446;6.800;2023-02-01T09:28:15;16.17;;;4.07;;
14613;SDS011;7393;51.446;6.800;2023-02-01T09:30:42;17.50;;;4.30;;
14613;SDS011;7393;51.446;6.800;2023-02-01T09:33:10;17.10;;;4.40;;
14613;SDS011;7393;51.446;6.800;2023-02-01T09:35:37;24.30;;;4.27;;
14613;SDS011;7393;51.446;6.800;2023-02-01T09:38:04;24.10;;;4.93;;
14613;SDS011;7393;51.446;6.800;2023-02-01T09:40:31;23.27;;;4.30;;
14613;SDS011;7393;51.446;6.800;2023-02-01T09:43:07;22.77;;;4.43;;
14613;SDS011;7393;51.446;6.800;2023-02-01T09:45:44;14.97;;;4.00;;
14613;SDS011;7393;51.446;6.800;2023-02-01T09:48:20;20.53;;;4.90;;
14613;SDS011;7393;51.446;6.800;2023-02-01T09:50:54;22.43;;;4.57;;
14613;SDS011;7393;51.446;6.800;2023-02-01T09:53:24;15.60;;;3.73;;
14613;SDS011;7393;51.446;6.800;2023-02-01T09:55:54;15.93;;;3.63;;
14613;SDS011;7393;51.446;6.800;2023-02-01T09:58:26;12.63;;;3.73;;
14613;SDS011;7393;51.446;6.800;2023-02-01T10:00:57;17.97;;;3.87;;
14613;SDS011;7393;51.446;6.800;2023-02-01T10:03:27;21.53;;;4.33;;
14613;SDS011;7393;51.446;6.800;2023-02-01T10:06:09;22.07;;;4.20;;
14613;SDS011;7393;51.446;6.800;2023-02-01T10:09:04;15.03;;;4.10;;
14613;SDS011;7393;51.446;6.800;2023-02-01T10:11:42;17.27;;;3.70;;
14613;SDS011;7393;51.446;6.800;2023-02-01T10:14:28;23.60;;;4.87;;
14613;SDS011;7393;51.446;6.800;2023-02-01T10:17:12;20.30;;;4.47;;
14613;SDS011;7393;51.446;6.800;2023-02-01T10:19:50;20.83;;;4.60;;
14613;SDS011;7393;51.446;6.800;2023-02-01T10:22:31;22.10;;;4.70;;
14613;SDS011;7393;51.446;6.800;2023-02-01T10:25:08;18.03;;;4.30;;
14613;SDS011;7393;51.446;6.800;2023-02-01T10:27:43;25.30;;;4.63;;
14613;SDS011;7393;51.446;6.800;2023-02-01T10:32:44;17.53;;;3.70;;
14613;SDS011;7393;51.446;6.800;2023-02-01T10:35:15;14.03;;;3.73;;
14613;SDS011;7393;51.446;6.800;2023-02-01T10:37:43;18.90;;;3.70;;
14613;SDS011;7393;51.446;6.800;2023-02-01T10:40:15;18.20;;;3.77;;
14613;SDS011;7393;51.446;6.800;2023-02-01T10:42:46;18.20;;;3.87;;
14613;SDS011;7393;51.446;6.800;2023-02-01T10:45:14;19.97;;;3.97;;
14613;SDS011;7393;51.446;6.800;2023-02-01T10:47:43;18.40;;;4.70;;
14613;SDS011;7393;51.446;6.800;2023-02-01T10:50:15;24.73;;;4.67;;
14613;SDS011;7393;51.446;6.800;2023-02-01T10:52:48;17.30;;;3.83;;
14613;SDS011;7393;51.446;6.800;2023-02-01T10:58:15;17.67;;;4.13;;
14613;SDS011;7393;51.446;6.800;2023-02-01T11:00:44;18.60;;;3.87;;
14613;SDS011;7393;51.446;6.800;2023-02-01T11:06:19;18.60;;;4.23;;
14613;SDS011;7393;51.446;6.800;2023-02-01T11:08:53;21.10;;;4.10;;
14613;SDS011;7393;51.446;6.800;2023-02-01T11:11:21;16.03;;;3.70;;
14613;SDS011;7393;51.446;6.800;2023-02-01T11:13:52;15.93;;;3.90;;
14613;SDS011;7393;51.446;6.800;2023-02-01T11:16:21;18.10;;;3.70;;
14613;SDS011;7393;51.446;6.800;2023-02-01T11:18:54;13.40;;;3.63;;
14613;SDS011;7393;51.446;6.800;2023-02-01T11:21:22;11.67;;;3.77;;
14613;SDS011;7393;51.446;6.800;2023-02-01T11:23:49;20.67;;;4.00;;
14613;SDS011;7393;51.446;6.800;2023-02-01T11:26:19;15.40;;;3.73;;
14613;SDS011;7393;51.446;6.800;2023-02-01T11:28:50;14.77;;;3.87;;
14613;SDS011;7393;51.446;6.800;2023-02-01T11:31:20;17.47;;;4.70;;
14613;SDS011;7393;51.446;6.800;2023-02-01T11:33:50;17.70;;;3.80;;
14613;SDS011;7393;51.446;6.800;2023-02-01T11:36:22;16.30;;;3.77;;
14613;SDS011;7393;51.446;6.800;2023-02-01T11:38:53;16.90;;;4.00;;
14613;SDS011;7393;51.446;6.800;2023-02-01T11:41:33;19.30;;;4.37;;
14613;SDS011;7393;51.446;6.800;2023-02-01T11:44:21;15.43;;;4.30;;
14613;SDS011;7393;51.446;6.800;2023-02-01T11:46:48;19.03;;;4.00;;
14613;SDS011;7393;51.446;6.800;2023-02-01T11:49:19;12.20;;;3.40;;
14613;SDS011;7393;51.446;6.800;2023-02-01T11:51:56;19.80;;;3.90;;
14613;SDS011;7393;51.446;6.800;2023-02-01T11:54:37;18.13;;;3.83;;
14613;SDS011;7393;51.446;6.800;2023-02-01T11:57:19;21.27;;;4.40;;
14613;SDS011;7393;51.446;6.800;2023-02-01T12:00:16;20.57;;;4.23;;
14613;SDS011;7393;51.446;6.800;2023-02-01T12:02:58;16.33;;;4.20;;
14613;SDS011;7393;51.446;6.800;2023-02-01T12:05:37;16.57;;;3.97;;
14613;SDS011;7393;51.446;6.800;2023-02-01T12:11:29;24.67;;;5.13;;
14613;SDS011;7393;51.446;6.800;2023-02-01T12:14:16;18.10;;;4.10;;
14613;SDS011;7393;51.446;6.800;2023-02-01T12:16:54;16.93;;;3.80;;
14613;SDS011;7393;51.446;6.800;2023-02-01T12:19:38;21.37;;;3.60;;
14613;SDS011;7393;51.446;6.800;2023-02-01T12:22:22;21.53;;;5.47;;
14613;SDS011;7393;51.446;6.800;2023-02-01T12:25:09;19.80;;;3.77;;
14613;SDS011;7393;51.446;6.800;2023-02-01T12:28:00;16.33;;;3.20;;
14613;SDS011;7393;51.446;6.800;2023-02-01T12:33:44;13.43;;;3.57;;
14613;SDS011;7393;51.446;6.800;2023-02-01T12:36:21;17.83;;;3.13;;
14613;SDS011;7393;51.446;6.800;2023-02-01T12:38:53;13.37;;;3.00;;
14613;SDS011;7393;51.446;6.800;2023-02-01T12:44:30;17.57;;;3.27;;
14613;SDS011;7393;51.446;6.800;2023-02-01T12:47:04;13.00;;;2.90;;
14613;SDS011;7393;51.446;6.800;2023-02-01T12:49:38;12.47;;;2.80;;
14613;SDS011;7393;51.446;6.800;2023-02-01T12:52:12;14.83;;;3.27;;
14613;SDS011;7393;51.446;6.800;2023-02-01T12:54:43;11.87;;;3.00;;
14613;SDS011;7393;51.446;6.800;2023-02-01T12:57:16;15.90;;;2.60;;
14613;SDS011;7393;51.446;6.800;2023-02-01T12:59:49;20.43;;;3.03;;
14613;SDS011;7393;51.446;6.800;2023-02-01T13:02:22;12.50;;;3.10;;
14613;SDS011;7393;51.446;6.800;2023-02-01T13:04:59;13.03;;;2.63;;
14613;SDS011;7393;51.446;6.800;2023-02-01T13:07:31;11.60;;;3.33;;
14613;SDS011;7393;51.446;6.800;2023-02-01T13:10:05;13.47;;;2.57;;
14613;SDS011;7393;51.446;6.800;2023-02-01T13:12:43;13.30;;;2.80;;
14613;SDS011;7393;51.446;6.800;2023-02-01T13:15:19;15.17;;;2.83;;
14613;SDS011;7393;51.446;6.800;2023-02-01T13:17:50;16.27;;;2.80;;
14613;SDS011;7393;51.446;6.800;2023-02-01T13:20:20;13.33;;;2.87;;
14613;SDS011;7393;51.446;6.800;2023-02-01T13:22:52;15.70;;;3.20;;
14613;SDS011;7393;51.446;6.800;2023-02-01T13:25:25;12.57;;;3.10;;
14613;SDS011;7393;51.446;6.800;2023-02-01T13:27:58;12.97;;;3.00;;
14613;SDS011;7393;51.446;6.800;2023-02-01T13:30:29;22.23;;;3.67;;
14613;SDS011;7393;51.446;6.800;2023-02-01T13:33:12;14.07;;;2.83;;
14613;SDS011;7393;51.446;6.800;2023-02-01T13:36:05;13.40;;;2.73;;
14613;SDS011;7393;51.446;6.800;2023-02-01T13:39:08;10.33;;;3.03;;
14613;SDS011;7393;51.446;6.800;2023-02-01T13:41:54;15.40;;;2.87;;
14613;SDS011;7393;51.446;6.800;2023-02-01T13:44:26;12.77;;;2.67;;
14613;SDS011;7393;51.446;6.800;2023-02-01T13:46:56;19.80;;;3.30;;
14613;SDS011;7393;51.446;6.800;2023-02-01T13:49:26;14.73;;;2.97;;
14613;SDS011;7393;51.446;6.800;2023-02-01T13:51:56;17.63;;;3.60;;
14613;SDS011;7393;51.446;6.800;2023-02-01T13:54:25;16.93;;;2.83;;
14613;SDS011;7393;51.446;6.800;2023-02-01T13:56:57;14.10;;;2.93;;
14613;SDS011;7393;51.446;6.800;2023-02-01T14:02:50;17.70;;;2.80;;
14613;SDS011;7393;51.446;6.800;2023-02-01T14:09:14;18.33;;;3.20;;
14613;SDS011;7393;51.446;6.800;2023-02-01T14:11:56;14.57;;;3.23;;
14613;SDS011;7393;51.446;6.800;2023-02-01T14:23:17;16.67;;;3.40;;
14613;SDS011;7393;51.446;6.800;2023-02-01T14:26:00;19.20;;;3.10;;
14613;SDS011;7393;51.446;6.800;2023-02-01T14:28:36;13.73;;;3.40;;
14613;SDS011;7393;51.446;6.800;2023-02-01T14:31:16;15.87;;;2.97;;
14613;SDS011;7393;51.446;6.800;2023-02-01T14:33:58;13.30;;;2.90;;
14613;SDS011;7393;51.446;6.800;2023-02-01T14:36:38;10.57;;;2.60;;
14613;SDS011;7393;51.446;6.800;2023-02-01T14:39:18;16.43;;;2.80;;
14613;SDS011;7393;51.446;6.800;2023-02-01T14:41:52;11.07;;;2.67;;
14613;SDS011;7393;51.446;6.800;2023-02-01T14:44:23;7.93;;;2.60;;
14613;SDS011;7393;51.446;6.800;2023-02-01T14:47:08;16.17;;;3.03;;
14613;SDS011;7393;51.446;6.800;2023-02-01T14:49:49;17.03;;;3.33;;
14613;SDS011;7393;51.446;6.800;2023-02-01T14:52:22;14.33;;;3.37;;
14613;SDS011;7393;51.446;6.800;2023-02-01T14:54:55;15.87;;;3.00;;
14613;SDS011;7393;51.446;6.800;2023-02-01T14:57:26;14.00;;;2.90;;
14613;SDS011;7393;51.446;6.800;2023-02-01T15:00:04;12.33;;;3.00;;
14613;SDS011;7393;51.446;6.800;2023-02-01T15:02:34;14.67;;;3.27;;
14613;SDS011;7393;51.446;6.800;2023-02-01T15:05:16;16.67;;;3.27;;
14613;SDS011;7393;51.446;6.800;2023-02-01T15:07:50;11.07;;;2.67;;
14613;SDS011;7393;51.446;6.800;2023-02-01T15:10:17;15.80;;;2.73;;
14613;SDS011;7393;51.446;6.800;2023-02-01T15:12:46;15.40;;;3.27;;
14613;SDS011;7393;51.446;6.800;2023-02-01T15:15:16;15.23;;;3.67;;
14613;SDS011;7393;51.446;6.800;2023-02-01T15:17:51;11.50;;;2.63;;
14613;SDS011;7393;51.446;6.800;2023-02-01T15:20:21;9.27;;;2.50;;
14613;SDS011;7393;51.446;6.800;2023-02-01T15:22:53;10.53;;;2.43;;
14613;SDS011;7393;51.446;6.800;2023-02-01T15:25:21;12.33;;;2.70;;
14613;SDS011;7393;51.446;6.800;2023-02-01T15:27:50;15.23;;;3.23;;
14613;SDS011;7393;51.446;6.800;2023-02-01T15:30:18;13.23;;;2.70;;
14613;SDS011;7393;51.446;6.800;2023-02-01T15:32:47;16.33;;;3.13;;
14613;SDS011;7393;51.446;6.800;2023-02-01T15:35:35;12.87;;;3.10;;
14613;SDS011;7393;51.446;6.800;2023-02-01T15:38:18;11.67;;;2.83;;
14613;SDS011;7393;51.446;6.800;2023-02-01T15:41:07;14.70;;;2.43;;
14613;SDS011;7393;51.446;6.800;2023-02-01T15:43:39;12.30;;;2.83;;
14613;SDS011;7393;51.446;6.800;2023-02-01T15:46:09;12.07;;;3.00;;
14613;SDS011;7393;51.446;6.800;2023-02-01T15:48:45;13.67;;;3.00;;
14613;SDS011;7393;51.446;6.800;2023-02-01T15:51:16;14.23;;;3.17;;
14613;SDS011;7393;51.446;6.800;2023-02-01T15:53:52;10.93;;;3.00;;